sensor_id;sensor_type;location;lat;lon;timestamp;pressure;altitude;pressure_sealevel;temperature;humidity
74834;BME280;63361;52.384;20.930;2023-08-30T00:01:14;99448.03;;;18.23;100.00
74834;BME280;63361;52.384;20.930;2023-08-30T00:03:39;99460.88;;;18.38;100.00
74834;BME280;63361;52.384;20.930;2023-08-30T00:06:06;99444.50;;;18.38;100.00
74834;BME280;63361;52.384;20.930;2023-08-30T00:08:32;99433.47;;;18.35;100.00
74834;BME280;63361;52.384;20.930;2023-08-30T00:10:58;99436.38;;;18.42;100.00
74834;BME280;63361;52.384;20.930;2023-08-30T00:13:29;99435.16;;;18.39;100.00
74834;BME280;63361;52.384;20.930;2023-08-30T00:15:54;99437.09;;;18.23;100.00
74834;BME280;63361;52.384;20.930;2023-08-30T00:18:20;99453.78;;;18.18;100.00
74834;BME280;63361;52.384;20.930;2023-08-30T00:20:46;99461.97;;;18.18;100.00
74834;BME280;63361;52.384;20.930;2023-08-30T00:23:11;99454.94;;;18.17;100.00
74834;BME280;63361;52.384;20.930;2023-08-30T00:25:36;99444.53;;;18.07;100.00
74834;BME280;63361;52.384;20.930;2023-08-30T00:28:02;99468.16;;;18.15;100.00
74834;BME280;63361;52.384;20.930;2023-08-30T00:30:27;99451.66;;;17.96;100.00
74834;BME280;63361;52.384;20.930;2023-08-30T00:32:53;99462.41;;;18.04;100.00
74834;BME280;63361;52.384;20.930;2023-08-30T00:35:18;99481.88;;;18.03;100.00
74834;BME280;63361;52.384;20.930;2023-08-30T00:37:43;99484.59;;;18.03;100.00
74834;BME280;63361;52.384;20.930;2023-08-30T00:40:09;99492.53;;;18.08;100.00
74834;BME280;63361;52.384;20.930;2023-08-30T00:42:34;99499.50;;;18.05;100.00
74834;BME280;63361;52.384;20.930;2023-08-30T00:44:59;99507.34;;;18.07;100.00
74834;BME280;63361;52.384;20.930;2023-08-30T00:47:25;99501.50;;;17.92;100.00
74834;BME280;63361;52.384;20.930;2023-08-30T00:49:50;99503.03;;;18.06;100.00
74834;BME280;63361;52.384;20.930;2023-08-30T00:52:16;99504.81;;;18.14;100.00
74834;BME280;63361;52.384;20.930;2023-08-30T00:54:42;99495.00;;;17.97;100.00
74834;BME280;63361;52.384;20.930;2023-08-30T00:57:08;99493.66;;;17.91;100.00
74834;BME280;63361;52.384;20.930;2023-08-30T00:59:33;99506.72;;;17.98;100.00
74834;BME280;63361;52.384;20.930;2023-08-30T01:01:59;99487.25;;;17.83;100.00
74834;BME280;63361;52.384;20.930;2023-08-30T01:04:27;99489.19;;;17.83;100.00
74834;BME280;63361;52.384;20.930;2023-08-30T01:06:52;99503.06;;;17.78;100.00
74834;BME280;63361;52.384;20.930;2023-08-30T01:09:17;99503.50;;;17.64;100.00
74834;BME280;63361;52.384;20.930;2023-08-30T01:14:21;99520.25;;;17.78;100.00
74834;BME280;63361;52.384;20.930;2023-08-30T01:16:48;99519.00;;;17.76;100.00
74834;BME280;63361;52.384;20.930;2023-08-30T01:21:50;99539.38;;;17.78;100.00
74834;BME280;63361;52.384;20.930;2023-08-30T01:24:27;99530.88;;;17.68;100.00
74834;BME280;63361;52.384;20.930;2023-08-30T01:27:07;99538.66;;;17.81;100.00
74834;BME280;63361;52.384;20.930;2023-08-30T01:29:33;99515.41;;;17.59;100.00
74834;BME280;63361;52.384;20.930;2023-08-30T01:32:00;99534.59;;;17.75;100.00
74834;BME280;63361;52.384;20.930;2023-08-30T01:34:26;99529.66;;;17.65;100.00
74834;BME280;63361;52.384;20.930;2023-08-30T01:36:52;99518.88;;;17.56;100.00
74834;BME280;63361;52.384;20.930;2023-08-30T01:39:17;99531.91;;;17.63;100.00
74834;BME280;63361;52.384;20.930;2023-08-30T01:41:43;99529.69;;;17.53;100.00
74834;BME280;63361;52.384;20.930;2023-08-30T01:44:10;99522.19;;;17.50;100.00
74834;BME280;63361;52.384;20.930;2023-08-30T01:46:37;99519.22;;;17.55;100.00
74834;BME280;63361;52.384;20.930;2023-08-30T01:49:03;99529.34;;;17.54;100.00
74834;BME280;63361;52.384;20.930;2023-08-30T01:51:29;99516.56;;;17.58;100.00
74834;BME280;63361;52.384;20.930;2023-08-30T01:53:55;99511.53;;;17.61;100.00
74834;BME280;63361;52.384;20.930;2023-08-30T01:56:22;99500.25;;;17.46;100.00
74834;BME280;63361;52.384;20.930;2023-08-30T01:58:48;99509.72;;;17.37;100.00
74834;BME280;63361;52.384;20.930;2023-08-30T02:01:13;99514.50;;;17.40;100.00
74834;BME280;63361;52.384;20.930;2023-08-30T02:03:39;99524.28;;;17.41;100.00
74834;BME280;63361;52.384;20.930;2023-08-30T02:06:06;99525.59;;;17.47;100.00
74834;BME280;63361;52.384;20.930;2023-08-30T02:09:04;99528.66;;;17.45;100.00
74834;BME280;63361;52.384;20.930;2023-08-30T02:11:35;99532.75;;;17.51;100.00
74834;BME280;63361;52.384;20.930;2023-08-30T02:14:05;99526.03;;;17.49;100.00
74834;BME280;63361;52.384;20.930;2023-08-30T02:16:32;99511.06;;;17.43;100.00
74834;BME280;63361;52.384;20.930;2023-08-30T02:18:58;99511.72;;;17.52;100.00
74834;BME280;63361;52.384;20.930;2023-08-30T02:21:24;99498.91;;;17.40;100.00
74834;BME280;63361;52.384;20.930;2023-08-30T02:23:52;99492.75;;;17.43;100.00
74834;BME280;63361;52.384;20.930;2023-08-30T02:26:21;99481.50;;;17.45;100.00
74834;BME280;63361;52.384;20.930;2023-08-30T02:28:46;99474.03;;;17.57;100.00
74834;BME280;63361;52.384;20.930;2023-08-30T02:31:11;99470.84;;;17.68;100.00
74834;BME280;63361;52.384;20.930;2023-08-30T02:33:37;99454.13;;;17.57;100.00
74834;BME280;63361;52.384;20.930;2023-08-30T02:36:03;99463.13;;;17.57;100.00
74834;BME280;63361;52.384;20.930;2023-08-30T02:38:28;99444.88;;;17.46;100.00
74834;BME280;63361;52.384;20.930;2023-08-30T02:40:54;99453.25;;;17.53;100.00
74834;BME280;63361;52.384;20.930;2023-08-30T02:43:19;99443.38;;;17.48;100.00
74834;BME280;63361;52.384;20.930;2023-08-30T02:45:44;99441.06;;;17.35;100.00
74834;BME280;63361;52.384;20.930;2023-08-30T02:48:09;99436.31;;;17.32;100.00
74834;BME280;63361;52.384;20.930;2023-08-30T02:50:35;99412.84;;;17.15;100.00
74834;BME280;63361;52.384;20.930;2023-08-30T02:53:00;99418.53;;;17.22;100.00
74834;BME280;63361;52.384;20.930;2023-08-30T02:55:25;99420.00;;;17.19;100.00
74834;BME280;63361;52.384;20.930;2023-08-30T02:57:51;99411.28;;;17.14;100.00
74834;BME280;63361;52.384;20.930;2023-08-30T03:00:16;99393.66;;;16.83;100.00
74834;BME280;63361;52.384;20.930;2023-08-30T03:02:41;99406.31;;;16.76;100.00
74834;BME280;63361;52.384;20.930;2023-08-30T03:05:07;99412.34;;;16.57;100.00
74834;BME280;63361;52.384;20.930;2023-08-30T03:07:32;99423.56;;;16.56;100.00
74834;BME280;63361;52.384;20.930;2023-08-30T03:09:57;99415.88;;;16.45;100.00
74834;BME280;63361;52.384;20.930;2023-08-30T03:12:23;99406.69;;;16.38;100.00
74834;BME280;63361;52.384;20.930;2023-08-30T03:14:48;99391.63;;;16.28;100.00
74834;BME280;63361;52.384;20.930;2023-08-30T03:17:13;99397.13;;;16.56;100.00
74834;BME280;63361;52.384;20.930;2023-08-30T03:19:39;99361.44;;;16.21;100.00
74834;BME280;63361;52.384;20.930;2023-08-30T03:22:04;99403.31;;;16.29;100.00
74834;BME280;63361;52.384;20.930;2023-08-30T03:24:29;99425.09;;;16.29;100.00
74834;BME280;63361;52.384;20.930;2023-08-30T03:26:54;99424.88;;;16.34;100.00
74834;BME280;63361;52.384;20.930;2023-08-30T03:29:20;99430.97;;;16.43;100.00
74834;BME280;63361;52.384;20.930;2023-08-30T03:31:45;99416.34;;;16.35;100.00
74834;BME280;63361;52.384;20.930;2023-08-30T03:34:11;99428.16;;;16.27;100.00
74834;BME280;63361;52.384;20.930;2023-08-30T03:36:37;99439.72;;;16.48;100.00
74834;BME280;63361;52.384;20.930;2023-08-30T03:39:03;99439.16;;;16.43;100.00
74834;BME280;63361;52.384;20.930;2023-08-30T03:41:28;99452.09;;;16.46;100.00
74834;BME280;63361;52.384;20.930;2023-08-30T03:43:54;99456.97;;;16.40;100.00
74834;BME280;63361;52.384;20.930;2023-08-30T03:46:19;99450.72;;;16.40;100.00
74834;BME280;63361;52.384;20.930;2023-08-30T03:48:44;99425.78;;;16.26;100.00
74834;BME280;63361;52.384;20.930;2023-08-30T03:51:09;99439.84;;;16.15;100.00
74834;BME280;63361;52.384;20.930;2023-08-30T03:53:35;99434.75;;;16.02;100.00
74834;BME280;63361;52.384;20.930;2023-08-30T03:56:00;99429.97;;;15.99;100.00
74834;BME280;63361;52.384;20.930;2023-08-30T03:58:25;99430.66;;;16.08;100.00
74834;BME280;63361;52.384;20.930;2023-08-30T04:00:51;99430.31;;;16.09;100.00
74834;BME280;63361;52.384;20.930;2023-08-30T04:03:16;99432.47;;;16.04;100.00
74834;BME280;63361;52.384;20.930;2023-08-30T04:05:42;99438.34;;;16.06;100.00
74834;BME280;63361;52.384;20.930;2023-08-30T04:08:08;99444.13;;;16.04;100.00
74834;BME280;63361;52.384;20.930;2023-08-30T04:10:38;99442.56;;;16.03;100.00
74834;BME280;63361;52.384;20.930;2023-08-30T04:13:04;99433.59;;;16.15;100.00
74834;BME280;63361;52.384;20.930;2023-08-30T04:15:37;99442.44;;;16.36;100.00
74834;BME280;63361;52.384;20.930;2023-08-30T04:18:03;99430.75;;;16.48;100.00
74834;BME280;63361;52.384;20.930;2023-08-30T04:20:29;99438.66;;;16.53;100.00
74834;BME280;63361;52.384;20.930;2023-08-30T04:22:55;99439.25;;;16.71;100.00
74834;BME280;63361;52.384;20.930;2023-08-30T04:25:22;99430.97;;;17.07;100.00
74834;BME280;63361;52.384;20.930;2023-08-30T04:27:47;99447.31;;;17.35;100.00
74834;BME280;63361;52.384;20.930;2023-08-30T04:30:13;99446.84;;;17.61;100.00
74834;BME280;63361;52.384;20.930;2023-08-30T04:32:38;99438.13;;;17.55;100.00
74834;BME280;63361;52.384;20.930;2023-08-30T04:35:04;99442.78;;;17.39;100.00
74834;BME280;63361;52.384;20.930;2023-08-30T04:37:32;99436.88;;;17.37;100.00
74834;BME280;63361;52.384;20.930;2023-08-30T04:39:58;99434.25;;;17.41;100.00
74834;BME280;63361;52.384;20.930;2023-08-30T04:42:23;99421.88;;;17.31;100.00
74834;BME280;63361;52.384;20.930;2023-08-30T04:44:48;99445.66;;;17.46;100.00
74834;BME280;63361;52.384;20.930;2023-08-30T04:47:14;99436.91;;;17.53;100.00
74834;BME280;63361;52.384;20.930;2023-08-30T04:49:39;99429.06;;;17.51;100.00
74834;BME280;63361;52.384;20.930;2023-08-30T04:52:05;99429.94;;;17.55;100.00
74834;BME280;63361;52.384;20.930;2023-08-30T04:54:30;99413.28;;;17.45;100.00
74834;BME280;63361;52.384;20.930;2023-08-30T04:56:56;99447.47;;;17.54;100.00
74834;BME280;63361;52.384;20.930;2023-08-30T04:59:21;99446.75;;;17.57;100.00
74834;BME280;63361;52.384;20.930;2023-08-30T05:01:47;99463.00;;;17.66;100.00
74834;BME280;63361;52.384;20.930;2023-08-30T05:04:12;99451.94;;;17.63;100.00
74834;BME280;63361;52.384;20.930;2023-08-30T05:06:37;99467.03;;;17.72;100.00
74834;BME280;63361;52.384;20.930;2023-08-30T05:09:03;99466.63;;;17.70;100.00
74834;BME280;63361;52.384;20.930;2023-08-30T05:11:28;99472.94;;;17.74;100.00
74834;BME280;63361;52.384;20.930;2023-08-30T05:13:57;99471.66;;;17.84;100.00
74834;BME280;63361;52.384;20.930;2023-08-30T05:16:22;99479.41;;;17.82;100.00
74834;BME280;63361;52.384;20.930;2023-08-30T05:18:47;99483.78;;;17.71;100.00
74834;BME280;63361;52.384;20.930;2023-08-30T05:21:13;99490.41;;;17.70;100.00
74834;BME280;63361;52.384;20.930;2023-08-30T05:23:39;99486.94;;;17.73;100.00
74834;BME280;63361;52.384;20.930;2023-08-30T05:26:07;99479.31;;;17.78;100.00
74834;BME280;63361;52.384;20.930;2023-08-30T05:28:33;99494.66;;;17.83;100.00
74834;BME280;63361;52.384;20.930;2023-08-30T05:30:58;99485.22;;;17.80;100.00
74834;BME280;63361;52.384;20.930;2023-08-30T05:33:24;99507.50;;;17.82;100.00
74834;BME280;63361;52.384;20.930;2023-08-30T05:35:49;99500.91;;;17.83;100.00
74834;BME280;63361;52.384;20.930;2023-08-30T05:38:14;99498.97;;;17.84;100.00
74834;BME280;63361;52.384;20.930;2023-08-30T05:40:40;99496.94;;;17.81;100.00
74834;BME280;63361;52.384;20.930;2023-08-30T05:43:10;99504.31;;;17.80;100.00
74834;BME280;63361;52.384;20.930;2023-08-30T05:45:35;99510.34;;;17.86;100.00
74834;BME280;63361;52.384;20.930;2023-08-30T05:48:00;99522.56;;;17.92;100.00
74834;BME280;63361;52.384;20.930;2023-08-30T05:50:26;99514.22;;;18.01;100.00
74834;BME280;63361;52.384;20.930;2023-08-30T05:52:51;99520.53;;;17.89;100.00
74834;BME280;63361;52.384;20.930;2023-08-30T05:55:16;99516.66;;;17.90;100.00
74834;BME280;63361;52.384;20.930;2023-08-30T05:57:42;99524.69;;;17.99;100.00
74834;BME280;63361;52.384;20.930;2023-08-30T06:00:07;99520.38;;;17.98;100.00
74834;BME280;63361;52.384;20.930;2023-08-30T06:02:34;99521.41;;;17.93;100.00
74834;BME280;63361;52.384;20.930;2023-08-30T06:04:59;99513.66;;;17.79;100.00
74834;BME280;63361;52.384;20.930;2023-08-30T06:07:24;99526.53;;;17.95;100.00
74834;BME280;63361;52.384;20.930;2023-08-30T06:09:49;99536.91;;;17.89;100.00
74834;BME280;63361;52.384;20.930;2023-08-30T06:12:15;99530.41;;;17.93;100.00
74834;BME280;63361;52.384;20.930;2023-08-30T06:14:40;99521.69;;;18.04;100.00
74834;BME280;63361;52.384;20.930;2023-08-30T06:17:05;99521.19;;;18.14;100.00
74834;BME280;63361;52.384;20.930;2023-08-30T06:19:31;99512.00;;;18.22;100.00
74834;BME280;63361;52.384;20.930;2023-08-30T06:21:56;99516.69;;;18.21;100.00
74834;BME280;63361;52.384;20.930;2023-08-30T06:24:21;99511.06;;;18.30;100.00
74834;BME280;63361;52.384;20.930;2023-08-30T06:26:47;99510.59;;;18.44;100.00
74834;BME280;63361;52.384;20.930;2023-08-30T06:29:12;99504.84;;;18.49;100.00
74834;BME280;63361;52.384;20.930;2023-08-30T06:31:37;99489.53;;;18.44;100.00
74834;BME280;63361;52.384;20.930;2023-08-30T06:34:04;99500.56;;;18.48;100.00
74834;BME280;63361;52.384;20.930;2023-08-30T06:36:29;99500.91;;;18.46;100.00
74834;BME280;63361;52.384;20.930;2023-08-30T06:38:55;99506.44;;;18.50;100.00
74834;BME280;63361;52.384;20.930;2023-08-30T06:41:20;99514.84;;;18.41;100.00
74834;BME280;63361;52.384;20.930;2023-08-30T06:43:45;99501.97;;;18.42;100.00
74834;BME280;63361;52.384;20.930;2023-08-30T06:46:11;99506.03;;;18.32;100.00
74834;BME280;63361;52.384;20.930;2023-08-30T06:48:36;99518.72;;;18.24;100.00
74834;BME280;63361;52.384;20.930;2023-08-30T06:51:01;99522.50;;;18.20;100.00
74834;BME280;63361;52.384;20.930;2023-08-30T06:53:27;99522.00;;;18.30;100.00
74834;BME280;63361;52.384;20.930;2023-08-30T06:55:59;99515.72;;;18.14;100.00
74834;BME280;63361;52.384;20.930;2023-08-30T06:58:25;99521.00;;;18.22;100.00
74834;BME280;63361;52.384;20.930;2023-08-30T07:00:51;99525.78;;;18.25;100.00
74834;BME280;63361;52.384;20.930;2023-08-30T07:03:16;99527.78;;;17.97;100.00
74834;BME280;63361;52.384;20.930;2023-08-30T07:05:41;99519.56;;;17.81;100.00
74834;BME280;63361;52.384;20.930;2023-08-30T07:08:09;99540.25;;;17.82;100.00
74834;BME280;63361;52.384;20.930;2023-08-30T07:10:34;99526.16;;;17.80;100.00
74834;BME280;63361;52.384;20.930;2023-08-30T07:13:00;99536.19;;;17.76;100.00
74834;BME280;63361;52.384;20.930;2023-08-30T07:15:25;99526.56;;;17.67;100.00
74834;BME280;63361;52.384;20.930;2023-08-30T07:17:50;99542.00;;;17.75;100.00
74834;BME280;63361;52.384;20.930;2023-08-30T07:20:16;99545.63;;;17.79;100.00
74834;BME280;63361;52.384;20.930;2023-08-30T07:22:42;99536.81;;;17.70;100.00
74834;BME280;63361;52.384;20.930;2023-08-30T07:25:07;99551.25;;;17.70;100.00
74834;BME280;63361;52.384;20.930;2023-08-30T07:27:35;99532.56;;;17.72;100.00
74834;BME280;63361;52.384;20.930;2023-08-30T07:30:01;99545.19;;;17.92;100.00
74834;BME280;63361;52.384;20.930;2023-08-30T07:32:26;99530.47;;;17.81;100.00
74834;BME280;63361;52.384;20.930;2023-08-30T07:34:52;99529.34;;;17.82;100.00
74834;BME280;63361;52.384;20.930;2023-08-30T07:37:19;99525.13;;;17.85;100.00
74834;BME280;63361;52.384;20.930;2023-08-30T07:39:45;99524.84;;;17.90;100.00
74834;BME280;63361;52.384;20.930;2023-08-30T07:42:10;99535.97;;;17.97;100.00
74834;BME280;63361;52.384;20.930;2023-08-30T07:44:35;99534.75;;;18.10;100.00
74834;BME280;63361;52.384;20.930;2023-08-30T07:47:01;99529.47;;;18.17;100.00
74834;BME280;63361;52.384;20.930;2023-08-30T07:49:26;99527.59;;;18.21;100.00
74834;BME280;63361;52.384;20.930;2023-08-30T07:51:51;99526.31;;;18.15;100.00
74834;BME280;63361;52.384;20.930;2023-08-30T07:54:17;99528.16;;;18.11;100.00
74834;BME280;63361;52.384;20.930;2023-08-30T07:56:42;99510.25;;;18.14;100.00
74834;BME280;63361;52.384;20.930;2023-08-30T07:59:07;99516.63;;;18.18;100.00
74834;BME280;63361;52.384;20.930;2023-08-30T08:01:33;99522.44;;;18.16;100.00
74834;BME280;63361;52.384;20.930;2023-08-30T08:03:58;99519.84;;;18.08;100.00
74834;BME280;63361;52.384;20.930;2023-08-30T08:06:23;99535.63;;;17.99;100.00
74834;BME280;63361;52.384;20.930;2023-08-30T08:08:49;99538.00;;;18.00;100.00
74834;BME280;63361;52.384;20.930;2023-08-30T08:11:14;99535.03;;;17.77;100.00
74834;BME280;63361;52.384;20.930;2023-08-30T08:13:40;99544.31;;;17.61;100.00
74834;BME280;63361;52.384;20.930;2023-08-30T08:16:06;99538.38;;;17.31;100.00
74834;BME280;63361;52.384;20.930;2023-08-30T08:18:32;99557.75;;;17.26;100.00
74834;BME280;63361;52.384;20.930;2023-08-30T08:20:57;99553.88;;;17.14;100.00
74834;BME280;63361;52.384;20.930;2023-08-30T08:23:23;99558.41;;;17.22;100.00
74834;BME280;63361;52.384;20.930;2023-08-30T08:25:48;99547.31;;;17.03;100.00
74834;BME280;63361;52.384;20.930;2023-08-30T08:28:13;99563.78;;;17.07;100.00
74834;BME280;63361;52.384;20.930;2023-08-30T08:30:39;99555.16;;;17.05;100.00
74834;BME280;63361;52.384;20.930;2023-08-30T08:33:04;99554.47;;;17.08;100.00
74834;BME280;63361;52.384;20.930;2023-08-30T08:35:29;99562.53;;;17.04;100.00
74834;BME280;63361;52.384;20.930;2023-08-30T08:37:55;99560.94;;;17.03;100.00
74834;BME280;63361;52.384;20.930;2023-08-30T08:40:20;99557.00;;;16.88;100.00
74834;BME280;63361;52.384;20.930;2023-08-30T08:42:46;99544.72;;;16.82;100.00
74834;BME280;63361;52.384;20.930;2023-08-30T08:45:15;99546.09;;;16.88;100.00
74834;BME280;63361;52.384;20.930;2023-08-30T08:47:42;99549.38;;;16.94;100.00
74834;BME280;63361;52.384;20.930;2023-08-30T08:50:10;99549.84;;;16.84;100.00
74834;BME280;63361;52.384;20.930;2023-08-30T08:52:35;99548.50;;;16.78;100.00
74834;BME280;63361;52.384;20.930;2023-08-30T08:55:01;99536.53;;;16.82;100.00
74834;BME280;63361;52.384;20.930;2023-08-30T08:57:28;99538.69;;;16.89;100.00
74834;BME280;63361;52.384;20.930;2023-08-30T08:59:58;99548.00;;;17.00;100.00
74834;BME280;63361;52.384;20.930;2023-08-30T09:02:23;99532.44;;;17.01;100.00
74834;BME280;63361;52.384;20.930;2023-08-30T09:04:50;99544.44;;;17.12;100.00
74834;BME280;63361;52.384;20.930;2023-08-30T09:07:17;99541.88;;;16.91;100.00
74834;BME280;63361;52.384;20.930;2023-08-30T09:09:43;99548.03;;;16.88;100.00
74834;BME280;63361;52.384;20.930;2023-08-30T09:12:08;99561.31;;;16.77;100.00
74834;BME280;63361;52.384;20.930;2023-08-30T09:14:33;99553.00;;;16.86;100.00
74834;BME280;63361;52.384;20.930;2023-08-30T09:17:01;99545.53;;;16.95;100.00
74834;BME280;63361;52.384;20.930;2023-08-30T09:19:27;99522.31;;;17.01;100.00
74834;BME280;63361;52.384;20.930;2023-08-30T09:21:57;99507.78;;;16.97;100.00
74834;BME280;63361;52.384;20.930;2023-08-30T09:24:23;99494.19;;;16.85;100.00
74834;BME280;63361;52.384;20.930;2023-08-30T09:26:50;99511.44;;;16.89;100.00
74834;BME280;63361;52.384;20.930;2023-08-30T09:29:17;99530.63;;;16.93;100.00
74834;BME280;63361;52.384;20.930;2023-08-30T09:31:43;99538.94;;;16.84;100.00
74834;BME280;63361;52.384;20.930;2023-08-30T09:34:09;99542.00;;;16.95;100.00
74834;BME280;63361;52.384;20.930;2023-08-30T09:36:37;99544.38;;;17.08;100.00
74834;BME280;63361;52.384;20.930;2023-08-30T09:39:14;99534.00;;;17.14;100.00
74834;BME280;63361;52.384;20.930;2023-08-30T09:41:44;99540.25;;;17.14;100.00
74834;BME280;63361;52.384;20.930;2023-08-30T09:44:13;99529.34;;;17.14;100.00
74834;BME280;63361;52.384;20.930;2023-08-30T09:46:46;99526.25;;;17.16;100.00
74834;BME280;63361;52.384;20.930;2023-08-30T09:49:14;99535.81;;;17.22;100.00
74834;BME280;63361;52.384;20.930;2023-08-30T09:51:41;99532.31;;;17.09;100.00
74834;BME280;63361;52.384;20.930;2023-08-30T09:54:15;99545.25;;;17.12;100.00
74834;BME280;63361;52.384;20.930;2023-08-30T09:56:42;99553.53;;;17.16;100.00
74834;BME280;63361;52.384;20.930;2023-08-30T09:59:10;99549.34;;;17.18;100.00
74834;BME280;63361;52.384;20.930;2023-08-30T10:01:36;99556.88;;;17.09;100.00
74834;BME280;63361;52.384;20.930;2023-08-30T10:04:02;99559.34;;;17.02;100.00
74834;BME280;63361;52.384;20.930;2023-08-30T10:06:29;99540.75;;;16.92;100.00
74834;BME280;63361;52.384;20.930;2023-08-30T10:08:56;99545.59;;;16.99;100.00
74834;BME280;63361;52.384;20.930;2023-08-30T10:11:23;99542.31;;;17.05;100.00
74834;BME280;63361;52.384;20.930;2023-08-30T10:13:51;99540.91;;;17.11;100.00
74834;BME280;63361;52.384;20.930;2023-08-30T10:16:19;99544.56;;;17.15;100.00
74834;BME280;63361;52.384;20.930;2023-08-30T10:18:52;99562.31;;;17.09;100.00
74834;BME280;63361;52.384;20.930;2023-08-30T10:21:20;99551.41;;;16.97;100.00
74834;BME280;63361;52.384;20.930;2023-08-30T10:23:48;99554.94;;;16.85;100.00
74834;BME280;63361;52.384;20.930;2023-08-30T10:26:16;99559.50;;;16.94;100.00
74834;BME280;63361;52.384;20.930;2023-08-30T10:28:42;99563.44;;;16.96;100.00
74834;BME280;63361;52.384;20.930;2023-08-30T10:31:08;99567.41;;;16.99;100.00
74834;BME280;63361;52.384;20.930;2023-08-30T10:33:46;99558.78;;;17.09;100.00
74834;BME280;63361;52.384;20.930;2023-08-30T10:36:12;99545.47;;;17.19;100.00
74834;BME280;63361;52.384;20.930;2023-08-30T10:38:37;99563.72;;;17.31;100.00
74834;BME280;63361;52.384;20.930;2023-08-30T10:41:08;99547.81;;;17.33;100.00
74834;BME280;63361;52.384;20.930;2023-08-30T10:43:35;99544.91;;;17.54;100.00
74834;BME280;63361;52.384;20.930;2023-08-30T10:46:04;99514.63;;;17.59;100.00
74834;BME280;63361;52.384;20.930;2023-08-30T10:48:39;99524.75;;;17.71;100.00
74834;BME280;63361;52.384;20.930;2023-08-30T10:51:19;99523.06;;;17.66;100.00
74834;BME280;63361;52.384;20.930;2023-08-30T10:53:55;99502.53;;;17.44;100.00
74834;BME280;63361;52.384;20.930;2023-08-30T10:56:29;99518.53;;;17.46;100.00
74834;BME280;63361;52.384;20.930;2023-08-30T10:58:56;99525.06;;;17.41;100.00
74834;BME280;63361;52.384;20.930;2023-08-30T11:01:22;99519.00;;;17.48;100.00
74834;BME280;63361;52.384;20.930;2023-08-30T11:03:49;99528.69;;;17.73;100.00
74834;BME280;63361;52.384;20.930;2023-08-30T11:06:14;99511.44;;;17.69;100.00
74834;BME280;63361;52.384;20.930;2023-08-30T11:08:43;99517.81;;;17.61;100.00
74834;BME280;63361;52.384;20.930;2023-08-30T11:11:10;99529.69;;;17.53;100.00
74834;BME280;63361;52.384;20.930;2023-08-30T11:13:36;99534.19;;;18.05;100.00
74834;BME280;63361;52.384;20.930;2023-08-30T11:16:02;99539.63;;;18.33;100.00
74834;BME280;63361;52.384;20.930;2023-08-30T11:18:33;99533.97;;;18.73;100.00
74834;BME280;63361;52.384;20.930;2023-08-30T11:21:02;99536.28;;;19.06;100.00
74834;BME280;63361;52.384;20.930;2023-08-30T11:23:27;99524.25;;;19.10;100.00
74834;BME280;63361;52.384;20.930;2023-08-30T11:25:53;99548.19;;;18.97;100.00
74834;BME280;63361;52.384;20.930;2023-08-30T11:28:25;99539.16;;;18.78;100.00
74834;BME280;63361;52.384;20.930;2023-08-30T11:30:54;99550.25;;;18.53;100.00
74834;BME280;63361;52.384;20.930;2023-08-30T11:33:20;99543.13;;;18.17;100.00
74834;BME280;63361;52.384;20.930;2023-08-30T11:35:46;99551.56;;;17.97;100.00
74834;BME280;63361;52.384;20.930;2023-08-30T11:38:13;99547.00;;;18.16;100.00
74834;BME280;63361;52.384;20.930;2023-08-30T11:40:39;99542.50;;;18.40;100.00
74834;BME280;63361;52.384;20.930;2023-08-30T11:43:06;99532.81;;;18.42;100.00
74834;BME280;63361;52.384;20.930;2023-08-30T11:45:32;99536.94;;;18.52;100.00
74834;BME280;63361;52.384;20.930;2023-08-30T11:47:59;99550.47;;;18.76;100.00
74834;BME280;63361;52.384;20.930;2023-08-30T11:50:25;99551.34;;;18.65;100.00
74834;BME280;63361;52.384;20.930;2023-08-30T11:52:51;99549.38;;;18.81;100.00
74834;BME280;63361;52.384;20.930;2023-08-30T11:55:17;99539.38;;;19.04;100.00
74834;BME280;63361;52.384;20.930;2023-08-30T11:57:44;99535.63;;;19.12;100.00
74834;BME280;63361;52.384;20.930;2023-08-30T12:00:10;99539.44;;;19.08;100.00
74834;BME280;63361;52.384;20.930;2023-08-30T12:02:36;99544.41;;;19.02;100.00
74834;BME280;63361;52.384;20.930;2023-08-30T12:05:02;99546.13;;;19.10;100.00
74834;BME280;63361;52.384;20.930;2023-08-30T12:07:27;99547.53;;;19.20;100.00
74834;BME280;63361;52.384;20.930;2023-08-30T12:10:06;99547.44;;;19.16;100.00
74834;BME280;63361;52.384;20.930;2023-08-30T12:12:32;99545.28;;;19.06;100.00
74834;BME280;63361;52.384;20.930;2023-08-30T12:14:58;99538.53;;;19.19;100.00
74834;BME280;63361;52.384;20.930;2023-08-30T12:17:23;99536.16;;;19.18;100.00
74834;BME280;63361;52.384;20.930;2023-08-30T12:19:56;99548.47;;;19.47;100.00
74834;BME280;63361;52.384;20.930;2023-08-30T12:22:22;99545.06;;;19.50;100.00
74834;BME280;63361;52.384;20.930;2023-08-30T12:24:47;99544.41;;;19.02;100.00
74834;BME280;63361;52.384;20.930;2023-08-30T12:27:13;99547.13;;;19.02;100.00
74834;BME280;63361;52.384;20.930;2023-08-30T12:29:39;99546.59;;;18.96;100.00
74834;BME280;63361;52.384;20.930;2023-08-30T12:32:06;99544.72;;;18.66;100.00
74834;BME280;63361;52.384;20.930;2023-08-30T12:34:31;99545.69;;;18.42;100.00
74834;BME280;63361;52.384;20.930;2023-08-30T12:36:57;99548.63;;;18.33;100.00
74834;BME280;63361;52.384;20.930;2023-08-30T12:39:22;99553.88;;;18.26;100.00
74834;BME280;63361;52.384;20.930;2023-08-30T12:41:48;99552.91;;;18.18;100.00